createdAt,value
2022-08-24T00:01:17.434Z,20.10
2022-08-24T00:03:46.900Z,20.00
2022-08-24T00:06:19.363Z,20.00
2022-08-24T00:08:48.195Z,20.00
2022-08-24T00:11:16.355Z,20.00
2022-08-24T00:13:44.489Z,20.00
2022-08-24T00:16:12.837Z,20.00
2022-08-24T00:18:41.269Z,19.90
2022-08-24T00:21:09.642Z,19.90
2022-08-24T00:23:38.765Z,19.90
2022-08-24T00:26:07.650Z,19.80
2022-08-24T00:28:36.187Z,19.80
2022-08-24T00:31:08.011Z,19.70
2022-08-24T00:33:36.081Z,19.70
2022-08-24T00:36:05.118Z,19.60
2022-08-24T00:38:35.570Z,19.60
2022-08-24T00:41:05.902Z,19.50
2022-08-24T00:43:34.373Z,19.50
2022-08-24T00:46:14.328Z,19.50
2022-08-24T00:48:46.824Z,19.50
2022-08-24T00:51:19.657Z,19.50
2022-08-24T00:53:51.978Z,19.40
2022-08-24T00:56:27.674Z,19.40
2022-08-24T00:59:00.222Z,19.40
2022-08-24T01:01:29.560Z,19.40
2022-08-24T01:03:59.402Z,19.40
2022-08-24T01:06:27.455Z,19.40
2022-08-24T01:08:56.457Z,19.40
2022-08-24T01:11:33.622Z,19.40
2022-08-24T01:14:03.586Z,19.40
2022-08-24T01:16:49.392Z,19.30
2022-08-24T01:19:26.759Z,19.30
2022-08-24T01:22:16.008Z,19.30
2022-08-24T01:24:45.937Z,19.30
2022-08-24T01:27:17.484Z,19.30
2022-08-24T01:29:48.709Z,19.30
2022-08-24T01:32:20.034Z,19.20
2022-08-24T01:34:47.767Z,19.20
2022-08-24T01:37:16.225Z,19.10
2022-08-24T01:39:48.367Z,19.20
2022-08-24T01:42:16.641Z,19.20
2022-08-24T01:44:46.394Z,19.10
2022-08-24T01:47:16.161Z,19.10
2022-08-24T01:49:46.922Z,19.10
2022-08-24T01:52:17.556Z,19.10
2022-08-24T01:54:46.746Z,19.00
2022-08-24T01:57:17.730Z,19.00
2022-08-24T01:59:46.703Z,19.00
2022-08-24T02:02:20.541Z,18.90
2022-08-24T02:04:48.812Z,19.00
2022-08-24T02:07:20.805Z,18.90
2022-08-24T02:09:50.126Z,18.90
2022-08-24T02:12:19.087Z,19.00
2022-08-24T02:14:47.387Z,18.90
2022-08-24T02:34:16.733Z,18.70
2022-08-24T02:36:44.546Z,18.60
2022-08-24T02:39:12.867Z,18.60
2022-08-24T02:41:40.923Z,18.60
2022-08-24T02:44:08.713Z,18.60
2022-08-24T02:46:36.828Z,18.60
2022-08-24T02:49:11.724Z,18.60
2022-08-24T02:51:44.519Z,18.60
2022-08-24T02:54:17.379Z,18.50
2022-08-24T02:56:45.331Z,18.50
2022-08-24T02:59:14.039Z,18.50
2022-08-24T03:01:42.013Z,18.50
2022-08-24T03:04:10.068Z,18.50
2022-08-24T03:06:38.517Z,18.50
2022-08-24T03:09:08.708Z,18.40
2022-08-24T03:11:36.537Z,18.40
2022-08-24T03:14:05.117Z,18.40
2022-08-24T03:16:33.333Z,18.30
2022-08-24T03:19:01.258Z,18.30
2022-08-24T03:21:29.980Z,18.30
2022-08-24T03:23:57.800Z,18.20
2022-08-24T03:26:26.915Z,18.20
2022-08-24T03:28:54.909Z,18.10
2022-08-24T03:31:22.848Z,18.10
2022-08-24T03:33:50.682Z,18.00
2022-08-24T03:36:18.911Z,18.00
2022-08-24T03:38:46.736Z,18.00
2022-08-24T03:41:14.936Z,18.00
2022-08-24T03:43:46.953Z,18.00
2022-08-24T03:46:16.780Z,17.90
2022-08-24T03:48:45.332Z,17.90
2022-08-24T03:51:15.531Z,17.90
2022-08-24T03:53:43.918Z,17.80
2022-08-24T03:56:12.044Z,17.90
2022-08-24T03:58:42.182Z,17.80
2022-08-24T04:01:12.232Z,17.80
2022-08-24T04:03:42.159Z,17.80
2022-08-24T04:06:11.796Z,17.70
2022-08-24T04:08:41.280Z,17.70
2022-08-24T04:11:12.207Z,17.70
2022-08-24T04:13:40.622Z,17.70
2022-08-24T04:16:12.471Z,17.70
2022-08-24T04:18:40.544Z,17.70
2022-08-24T04:21:16.294Z,17.60
2022-08-24T04:23:47.415Z,17.60
2022-08-24T04:26:28.764Z,17.60
2022-08-24T04:29:07.952Z,17.60
2022-08-24T04:31:38.009Z,17.60
2022-08-24T04:34:06.294Z,17.60
2022-08-24T04:36:34.206Z,17.60
2022-08-24T04:39:02.527Z,17.60
2022-08-24T04:41:31.449Z,17.70
2022-08-24T04:44:00.535Z,17.60
2022-08-24T04:46:31.021Z,17.60
2022-08-24T04:49:00.205Z,17.70
2022-08-24T04:51:31.669Z,17.60
2022-08-24T04:54:04.478Z,17.70
2022-08-24T04:56:32.498Z,17.70
2022-08-24T04:59:00.275Z,17.70
2022-08-24T05:01:32.716Z,17.70
2022-08-24T05:04:02.662Z,17.80
2022-08-24T05:06:33.926Z,17.80
2022-08-24T05:09:06.756Z,17.90
2022-08-24T05:11:37.220Z,17.90
2022-08-24T05:14:05.173Z,18.00
2022-08-24T05:16:37.682Z,18.00
2022-08-24T05:19:08.044Z,18.00
2022-08-24T05:21:35.949Z,18.10
2022-08-24T05:24:04.228Z,18.10
2022-08-24T05:26:32.166Z,18.20
2022-08-24T05:29:03.066Z,18.30
2022-08-24T05:31:33.490Z,18.30
2022-08-24T05:34:02.779Z,18.30
2022-08-24T05:36:33.984Z,18.40
2022-08-24T05:39:07.008Z,18.50
2022-08-24T05:41:38.696Z,18.60
2022-08-24T05:44:13.408Z,18.60
2022-08-24T05:46:41.293Z,18.70
2022-08-24T05:49:13.031Z,18.70
2022-08-24T05:51:43.062Z,18.70
2022-08-24T05:54:11.547Z,18.80
2022-08-24T05:56:39.354Z,18.80
2022-08-24T05:59:07.367Z,18.90
2022-08-24T06:01:35.583Z,19.00
2022-08-24T06:04:03.939Z,19.00
2022-08-24T06:06:32.175Z,19.10
2022-08-24T06:09:02.035Z,19.20
2022-08-24T06:11:31.974Z,19.30
2022-08-24T06:14:01.882Z,19.30
2022-08-24T06:16:30.162Z,19.40
2022-08-24T06:18:58.440Z,19.40
2022-08-24T06:21:28.498Z,19.50
2022-08-24T06:23:57.287Z,19.60
2022-08-24T06:26:50.054Z,19.60
2022-08-24T06:29:18.355Z,19.80
2022-08-24T06:31:48.510Z,19.90
2022-08-24T06:34:22.525Z,20.00
2022-08-24T06:36:52.496Z,20.10
2022-08-24T06:39:21.718Z,20.10
2022-08-24T06:41:50.963Z,20.10
2022-08-24T06:44:18.811Z,20.20
2022-08-24T06:46:46.848Z,20.20
2022-08-24T06:49:15.023Z,20.30
2022-08-24T06:51:44.643Z,20.40
2022-08-24T06:54:14.109Z,20.50
2022-08-24T06:56:41.881Z,20.50
2022-08-24T06:59:11.129Z,20.60
2022-08-24T07:01:39.010Z,20.70
2022-08-24T07:04:06.828Z,20.90
2022-08-24T07:06:36.757Z,20.90
2022-08-24T07:09:05.087Z,21.00
2022-08-24T07:11:35.001Z,21.10
2022-08-24T07:14:02.913Z,21.20
2022-08-24T07:16:32.427Z,21.20
2022-08-24T07:19:00.878Z,21.30
2022-08-24T07:21:28.803Z,21.30
2022-08-24T07:23:57.813Z,21.40
2022-08-24T07:26:27.993Z,21.40
2022-08-24T07:29:04.764Z,21.50
2022-08-24T07:31:35.532Z,21.50
2022-08-24T07:34:04.022Z,21.60
2022-08-24T07:36:32.041Z,21.70
2022-08-24T07:39:00.054Z,21.70
2022-08-24T07:42:02.589Z,21.80
2022-08-24T07:44:16.465Z,21.90
2022-08-24T07:46:46.164Z,22.00
2022-08-24T07:49:31.317Z,22.10
2022-08-24T07:52:01.884Z,22.20
2022-08-24T07:54:29.801Z,22.30
2022-08-24T07:57:00.010Z,22.30
2022-08-24T07:59:27.836Z,22.50
2022-08-24T08:01:57.042Z,22.50
2022-08-24T08:04:26.221Z,22.60
2022-08-24T08:07:00.696Z,22.70
2022-08-24T08:09:29.184Z,22.80
2022-08-24T08:11:57.031Z,22.80
2022-08-24T08:14:25.195Z,22.90
2022-08-24T08:16:53.612Z,23.00
2022-08-24T08:19:22.757Z,23.10
2022-08-24T08:22:10.347Z,23.20
2022-08-24T08:24:39.607Z,23.30
2022-08-24T08:27:07.887Z,23.40
2022-08-24T08:29:37.110Z,23.50
2022-08-24T08:32:05.594Z,23.60
2022-08-24T08:34:34.732Z,23.60
2022-08-24T08:37:03.858Z,23.70
2022-08-24T08:39:32.508Z,23.70
2022-08-24T08:42:24.816Z,23.80
2022-08-24T08:45:01.602Z,23.80
2022-08-24T08:47:52.672Z,23.90
2022-08-24T08:50:27.121Z,23.90
2022-08-24T08:53:19.746Z,24.00
2022-08-24T08:55:54.001Z,24.10
2022-08-24T08:58:40.763Z,24.20
2022-08-24T09:01:20.799Z,24.20
2022-08-24T09:04:17.164Z,24.30
2022-08-24T09:07:04.703Z,24.40
2022-08-24T09:09:56.113Z,24.50
2022-08-24T09:12:32.289Z,24.50
2022-08-24T09:15:23.323Z,24.60
2022-08-24T09:18:15.630Z,24.70
2022-08-24T09:21:17.080Z,24.80
2022-08-24T09:23:56.412Z,24.90
2022-08-24T09:26:29.480Z,25.00
2022-08-24T09:29:05.564Z,25.00
2022-08-24T09:31:51.671Z,25.00
2022-08-24T09:34:27.642Z,25.10
2022-08-24T09:37:00.821Z,25.20
2022-08-24T09:39:59.705Z,25.30
2022-08-24T09:43:06.270Z,25.30
2022-08-24T09:46:25.897Z,25.40
2022-08-24T09:49:26.747Z,25.50
2022-08-24T09:52:22.541Z,25.50
2022-08-24T09:55:32.757Z,25.60
2022-08-24T09:58:11.518Z,25.70
2022-08-24T10:00:45.816Z,25.80
2022-08-24T10:03:33.928Z,25.80
2022-08-24T10:06:18.798Z,25.80
2022-08-24T10:09:04.405Z,25.90
2022-08-24T10:11:42.653Z,25.90
2022-08-24T10:14:20.019Z,25.90
2022-08-24T10:17:01.395Z,26.00
2022-08-24T10:19:46.148Z,26.10
2022-08-24T10:22:24.108Z,26.20
2022-08-24T10:25:09.625Z,26.20
2022-08-24T10:27:56.460Z,26.30
2022-08-24T10:30:53.475Z,26.30
2022-08-24T10:33:24.394Z,26.30
2022-08-24T10:36:32.531Z,26.40
2022-08-24T10:39:39.890Z,26.50
2022-08-24T10:42:58.664Z,26.50
2022-08-24T10:46:02.120Z,26.60
2022-08-24T10:49:08.560Z,26.60
2022-08-24T10:51:51.331Z,26.60
2022-08-24T10:54:21.247Z,26.70
2022-08-24T10:56:59.250Z,26.70
2022-08-24T10:59:37.720Z,26.80
2022-08-24T11:02:12.484Z,26.80
2022-08-24T11:04:41.523Z,26.90
2022-08-24T11:07:17.576Z,26.90
2022-08-24T11:09:48.922Z,26.90
2022-08-24T11:12:22.717Z,27.00
2022-08-24T11:14:52.663Z,27.00
2022-08-24T11:17:21.884Z,27.10
2022-08-24T11:19:50.893Z,27.10
2022-08-24T11:22:32.120Z,27.30
2022-08-24T11:25:02.813Z,27.30
2022-08-24T11:27:35.419Z,27.40
2022-08-24T11:30:10.766Z,27.50
2022-08-24T11:32:41.941Z,27.60
2022-08-24T11:35:18.938Z,27.60
2022-08-24T11:37:47.747Z,27.60
2022-08-24T11:40:17.928Z,27.60
2022-08-24T11:43:01.227Z,27.60
2022-08-24T11:45:38.054Z,27.70
2022-08-24T11:48:29.616Z,27.70
2022-08-24T11:51:05.033Z,27.80
2022-08-24T11:56:21.639Z,27.90
2022-08-24T11:59:00.530Z,27.90
2022-08-24T12:01:35.921Z,27.90
2022-08-24T12:04:36.097Z,28.00
2022-08-24T12:07:12.656Z,28.00
2022-08-24T12:09:59.057Z,28.10
2022-08-24T12:12:33.467Z,28.10
2022-08-24T12:15:10.390Z,28.10
2022-08-24T12:17:44.073Z,28.20
2022-08-24T12:20:24.076Z,28.20
2022-08-24T12:22:54.092Z,28.20
2022-08-24T12:25:39.997Z,28.30
2022-08-24T12:28:08.090Z,28.30
2022-08-24T12:30:36.035Z,28.40
2022-08-24T12:33:10.074Z,28.40
2022-08-24T12:35:42.203Z,28.40
2022-08-24T12:38:15.501Z,28.40
2022-08-24T12:40:47.942Z,28.50
2022-08-24T12:43:19.835Z,28.50
2022-08-24T12:45:47.830Z,28.50
2022-08-24T12:48:24.427Z,28.50
2022-08-24T12:51:08.635Z,28.50
2022-08-24T12:53:54.538Z,28.60
2022-08-24T12:56:46.141Z,28.60
2022-08-24T12:59:21.310Z,28.70
2022-08-24T13:01:59.878Z,28.70
2022-08-24T13:04:40.439Z,28.70
2022-08-24T13:07:11.626Z,28.70
2022-08-24T13:09:42.789Z,28.70
2022-08-24T13:13:08.329Z,28.80
2022-08-24T13:16:03.041Z,28.80
2022-08-24T13:19:07.180Z,28.90
2022-08-24T13:21:41.216Z,28.80
2022-08-24T13:24:44.508Z,28.80
2022-08-24T13:27:49.485Z,28.80
2022-08-24T13:30:51.932Z,28.80
2022-08-24T13:33:21.295Z,28.80
2022-08-24T13:35:59.157Z,28.80
2022-08-24T13:38:52.273Z,28.80
2022-08-24T13:41:45.494Z,28.90
2022-08-24T13:44:23.095Z,28.90
2022-08-24T13:47:00.949Z,28.90
2022-08-24T13:50:01.691Z,28.90
2022-08-24T13:52:40.014Z,28.90
2022-08-24T13:55:27.933Z,28.90
2022-08-24T13:58:21.699Z,28.90
2022-08-24T14:00:56.481Z,28.90
2022-08-24T14:03:41.298Z,29.00
2022-08-24T14:06:24.495Z,29.00
2022-08-24T14:09:02.137Z,29.00
2022-08-24T14:11:48.119Z,29.00
2022-08-24T14:14:23.473Z,29.00
2022-08-24T14:17:25.577Z,29.00
2022-08-24T14:20:08.822Z,29.00
2022-08-24T14:22:43.923Z,28.90
2022-08-24T14:25:20.975Z,28.90
2022-08-24T14:27:52.704Z,29.00
2022-08-24T14:30:40.881Z,28.90
2022-08-24T14:33:18.532Z,28.90
2022-08-24T14:36:04.317Z,28.90
2022-08-24T14:38:45.037Z,28.80
2022-08-24T14:41:22.963Z,28.90
2022-08-24T14:44:14.336Z,28.90
2022-08-24T14:46:51.692Z,28.90
2022-08-24T14:49:28.130Z,28.90
2022-08-24T14:52:12.712Z,28.90
2022-08-24T14:54:52.014Z,28.90
2022-08-24T14:57:48.585Z,28.80
2022-08-24T15:00:23.468Z,28.80
2022-08-24T15:03:21.528Z,28.80
2022-08-24T15:06:25.590Z,28.80
2022-08-24T15:08:53.164Z,28.80
2022-08-24T15:11:26.318Z,28.70
2022-08-24T15:13:59.253Z,28.70
2022-08-24T15:16:48.964Z,28.70
2022-08-24T15:19:31.964Z,28.60
2022-08-24T15:22:03.781Z,28.60
2022-08-24T15:24:41.118Z,28.60
2022-08-24T15:27:16.317Z,28.60
2022-08-24T15:29:50.904Z,28.60
2022-08-24T15:32:21.833Z,28.50
2022-08-24T15:34:59.359Z,28.50
2022-08-24T15:37:31.119Z,28.40
2022-08-24T15:39:59.745Z,28.50
2022-08-24T15:42:30.575Z,28.50
2022-08-24T15:45:02.852Z,28.50
2022-08-24T15:47:35.065Z,28.50
2022-08-24T15:50:06.473Z,28.50
2022-08-24T15:52:51.028Z,28.40
2022-08-24T15:55:32.418Z,28.40
2022-08-24T15:58:22.698Z,28.40
2022-08-24T16:01:08.550Z,28.30
2022-08-24T16:03:50.988Z,28.30
2022-08-24T16:06:24.566Z,28.20
2022-08-24T16:09:03.230Z,28.20
2022-08-24T16:11:35.551Z,28.20
2022-08-24T16:14:03.828Z,28.10
2022-08-24T16:16:35.412Z,28.10
2022-08-24T16:19:08.404Z,28.00
2022-08-24T16:21:39.296Z,28.00
2022-08-24T16:24:10.237Z,28.00
2022-08-24T16:26:56.662Z,28.00
2022-08-24T16:29:44.785Z,28.00
2022-08-24T16:32:21.049Z,28.00
2022-08-24T16:35:17.897Z,28.00
2022-08-24T16:37:45.682Z,27.90
2022-08-24T16:40:14.106Z,27.90
2022-08-24T16:42:42.224Z,27.90
2022-08-24T16:45:14.859Z,27.80
2022-08-24T16:47:42.829Z,27.80
2022-08-24T16:50:12.199Z,27.80
2022-08-24T16:52:40.239Z,27.80
2022-08-24T16:55:08.932Z,27.80
2022-08-24T16:57:37.607Z,27.70
2022-08-24T17:00:09.180Z,27.70
2022-08-24T17:02:37.649Z,27.60
2022-08-24T17:05:06.685Z,27.60
2022-08-24T17:07:35.946Z,27.70
2022-08-24T17:10:07.782Z,27.70
2022-08-24T17:12:36.092Z,27.80
2022-08-24T17:15:05.163Z,27.70
2022-08-24T17:17:33.561Z,27.80
2022-08-24T17:20:01.633Z,27.70
2022-08-24T17:22:29.738Z,27.50
2022-08-24T17:24:59.536Z,27.40
2022-08-24T17:27:33.142Z,27.40
2022-08-24T17:30:01.467Z,27.20
2022-08-24T17:32:29.594Z,27.20
2022-08-24T17:34:58.042Z,27.10
2022-08-24T17:37:26.357Z,27.00
2022-08-24T17:39:57.764Z,26.90
2022-08-24T17:42:50.167Z,26.80
2022-08-24T17:45:15.423Z,26.80
2022-08-24T17:47:44.055Z,26.70
2022-08-24T17:50:13.864Z,26.60
2022-08-24T17:52:42.466Z,26.50
2022-08-24T17:55:12.862Z,26.40
2022-08-24T17:57:44.573Z,26.40
2022-08-24T18:00:16.271Z,26.30
2022-08-24T18:02:44.045Z,26.30
2022-08-24T18:05:14.476Z,26.20
2022-08-24T18:07:53.635Z,26.10
2022-08-24T18:10:24.404Z,26.00
2022-08-24T18:12:53.627Z,26.00
2022-08-24T18:15:21.647Z,25.90
2022-08-24T18:17:59.727Z,25.80
2022-08-24T18:20:31.263Z,25.70
2022-08-24T18:22:59.157Z,25.70
2022-08-24T18:25:28.198Z,25.60
2022-08-24T18:27:58.766Z,25.50
2022-08-24T18:30:30.627Z,25.50
2022-08-24T18:32:59.642Z,25.40
2022-08-24T18:35:28.128Z,25.30
2022-08-24T18:37:55.855Z,25.30
2022-08-24T18:40:27.063Z,25.20
2022-08-24T18:43:03.851Z,25.10
2022-08-24T18:45:34.090Z,25.00
2022-08-24T18:48:02.565Z,24.90
2022-08-24T18:50:30.373Z,24.90
2022-08-24T18:52:59.276Z,24.80
2022-08-24T18:55:30.609Z,24.70
2022-08-24T18:57:58.428Z,24.60
2022-08-24T19:00:27.520Z,24.50
2022-08-24T19:02:56.554Z,24.50
2022-08-24T19:05:25.687Z,24.40
2022-08-24T19:07:55.406Z,24.40
2022-08-24T19:10:25.250Z,24.20
2022-08-24T19:12:57.285Z,24.20
2022-08-24T19:15:32.028Z,24.10
2022-08-24T19:18:08.312Z,24.10
2022-08-24T19:20:36.734Z,24.00
2022-08-24T19:23:09.843Z,23.90
2022-08-24T19:25:38.894Z,23.90
2022-08-24T19:28:07.977Z,23.80
2022-08-24T19:30:37.959Z,23.80
2022-08-24T19:33:10.569Z,23.70
2022-08-24T19:35:41.352Z,23.60
2022-08-24T19:38:09.455Z,23.60
2022-08-24T19:40:39.187Z,23.50
2022-08-24T19:43:08.492Z,23.40
2022-08-24T19:45:55.934Z,23.40
2022-08-24T19:48:24.492Z,23.30
2022-08-24T19:50:53.735Z,23.30
2022-08-24T19:53:21.894Z,23.20
2022-08-24T19:55:50.530Z,23.20
2022-08-24T19:58:24.002Z,23.10
2022-08-24T20:00:58.378Z,23.10
2022-08-24T20:03:26.246Z,23.00
2022-08-24T20:05:54.401Z,22.90
2022-08-24T20:08:22.882Z,22.90
2022-08-24T20:10:52.894Z,22.80
2022-08-24T20:13:20.987Z,22.80
2022-08-24T20:15:49.087Z,22.70
2022-08-24T20:18:18.346Z,22.70
2022-08-24T20:20:46.454Z,22.60
2022-08-24T20:23:17.844Z,22.60
2022-08-24T20:25:46.312Z,22.50
2022-08-24T20:28:34.756Z,22.50
2022-08-24T20:31:03.345Z,22.40
2022-08-24T20:33:32.416Z,22.30
2022-08-24T20:36:00.570Z,22.30
2022-08-24T20:38:29.319Z,22.30
2022-08-24T20:41:00.196Z,22.20
2022-08-24T20:43:27.964Z,22.20
2022-08-24T20:45:56.547Z,22.10
2022-08-24T20:48:29.110Z,22.10
2022-08-24T20:50:58.344Z,22.10
2022-08-24T20:53:26.715Z,22.00
2022-08-24T20:55:56.970Z,22.00
2022-08-24T20:58:24.940Z,21.90
2022-08-24T21:00:52.823Z,22.00
2022-08-24T21:03:21.442Z,21.90
2022-08-24T21:05:52.274Z,21.90
2022-08-24T21:08:21.615Z,21.80
2022-08-24T21:10:49.544Z,21.80
2022-08-24T21:13:17.402Z,21.80
2022-08-24T21:15:45.971Z,21.80
2022-08-24T21:18:13.765Z,21.70
2022-08-24T21:20:44.787Z,21.70
2022-08-24T21:23:31.769Z,21.70
2022-08-24T21:25:59.997Z,21.70
2022-08-24T21:28:27.892Z,21.60
2022-08-24T21:30:55.924Z,21.60
2022-08-24T21:33:41.569Z,21.60
2022-08-24T21:36:09.927Z,21.60
2022-08-24T21:38:39.213Z,21.60
2022-08-24T21:41:13.112Z,21.60
2022-08-24T21:43:40.865Z,21.60
2022-08-24T21:46:09.626Z,21.50
2022-08-24T21:48:37.550Z,21.50
2022-08-24T21:51:05.460Z,21.50
2022-08-24T21:53:33.196Z,21.50
2022-08-24T21:56:04.223Z,21.50
2022-08-24T21:58:32.085Z,21.40
2022-08-24T22:01:00.618Z,21.40
2022-08-24T22:03:31.425Z,21.40
2022-08-24T22:06:05.520Z,21.40
2022-08-24T22:08:35.902Z,21.40
2022-08-24T22:11:05.553Z,21.40
2022-08-24T22:13:34.114Z,21.30
2022-08-24T22:16:02.567Z,21.30
2022-08-24T22:18:30.504Z,21.30
2022-08-24T22:20:58.414Z,21.30
2022-08-24T22:23:26.706Z,21.30
2022-08-24T22:25:55.241Z,21.30
2022-08-24T22:28:24.545Z,21.30
2022-08-24T22:30:52.331Z,21.30
2022-08-24T22:33:20.884Z,21.30
2022-08-24T22:35:50.246Z,21.20
2022-08-24T22:38:18.129Z,21.20
2022-08-24T22:40:45.909Z,21.20
2022-08-24T22:43:13.915Z,21.20
2022-08-24T22:45:43.051Z,21.10
2022-08-24T22:48:10.835Z,21.10
2022-08-24T22:50:38.617Z,21.10
2022-08-24T22:53:06.653Z,21.10
2022-08-24T22:55:34.529Z,21.10
2022-08-24T22:58:02.343Z,21.00
2022-08-24T23:00:30.131Z,21.00
2022-08-24T23:02:59.295Z,21.00
2022-08-24T23:05:27.228Z,21.00
2022-08-24T23:07:54.998Z,21.00
2022-08-24T23:10:22.922Z,20.90
2022-08-24T23:12:50.722Z,20.90
2022-08-24T23:15:18.596Z,21.00
2022-08-24T23:17:46.748Z,21.00
2022-08-24T23:20:14.917Z,21.10
2022-08-24T23:22:44.046Z,21.10
2022-08-24T23:25:14.173Z,21.00
2022-08-24T23:27:44.502Z,21.00
2022-08-24T23:30:14.876Z,21.10
2022-08-24T23:32:43.688Z,21.10
2022-08-24T23:35:11.573Z,21.00
2022-08-24T23:37:40.895Z,21.00
2022-08-24T23:40:09.737Z,21.00
2022-08-24T23:42:37.594Z,21.00
2022-08-24T23:45:06.045Z,21.00
2022-08-24T23:47:37.354Z,21.00
2022-08-24T23:50:06.730Z,21.00
2022-08-24T23:52:41.235Z,21.00
2022-08-24T23:55:21.268Z,21.10
2022-08-24T23:57:50.444Z,21.10
